Time;durP1;ratioP1;P1;durP2;ratioP2;P2;SDS_P1;SDS_P2;PMS_P1;PMS_P2;Temp;Humidity;BMP_temperature;BMP_pressure;BME280_temperature;BME280_humidity;BME280_pressure;Samples;Min_cycle;Max_cycle;Signal;HPM_P1;HPM_P2
2023/08/01 00:00:40;;;;;;;8.20;2.88;;;;;;;15.54;100.00;99979.66;6053084;19;20046;-71
2023/08/01 00:02:49;;;;;;;9.00;3.13;;;;;;;15.60;100.00;99976.53;6056203;19;20502;-71
2023/08/01 00:04:55;;;;;;;7.80;3.08;;;;;;;15.67;100.00;99977.78;6056490;19;20567;-71
2023/08/01 00:07:00;;;;;;;12.00;3.38;;;;;;;15.64;100.00;99977.13;6056145;19;20002;-71
2023/08/01 00:09:08;;;;;;;10.82;3.75;;;;;;;15.66;100.00;99970.75;6055971;19;20535;-71
2023/08/01 00:11:14;;;;;;;10.07;3.65;;;;;;;15.57;100.00;99968.81;6054225;19;20370;-71
2023/08/01 00:13:17;;;;;;;12.40;3.53;;;;;;;15.52;100.00;99968.31;6055140;19;20069;-72
2023/08/01 00:15:22;;;;;;;10.05;3.67;;;;;;;15.59;100.00;99969.56;6054498;19;20195;-72
2023/08/01 00:17:28;;;;;;;6.35;2.92;;;;;;;15.50;100.00;99970.25;6054710;19;20427;-73
2023/08/01 00:19:42;;;;;;;13.35;4.05;;;;;;;15.45;100.00;99951.22;6046787;19;20108;-84
2023/08/01 00:22:05;;;;;;;12.88;3.63;;;;;;;15.46;100.00;99950.25;6085557;19;20014;-83
2023/08/01 00:27:10;;;;;;;9.23;3.35;;;;;;;15.37;100.00;99944.66;6080978;19;20006;-84
2023/08/01 00:29:37;;;;;;;10.77;3.28;;;;;;;15.45;100.00;99940.63;6068677;19;20023;-84
2023/08/01 00:31:55;;;;;;;9.88;3.40;;;;;;;15.42;100.00;99930.25;6076398;19;20037;-85
2023/08/01 00:34:38;;;;;;;9.98;3.67;;;;;;;15.35;100.00;99930.72;6076474;19;20035;-85
2023/08/01 00:36:55;;;;;;;10.50;3.80;;;;;;;15.34;100.00;99920.25;6080661;19;20083;-84
2023/08/01 00:39:24;;;;;;;8.07;3.70;;;;;;;15.27;100.00;99911.06;6072507;19;20027;-83
2023/08/01 00:44:33;;;;;;;12.30;4.43;;;;;;;15.27;100.00;99919.00;6077962;19;20012;-84
2023/08/01 00:47:21;;;;;;;11.50;3.90;;;;;;;15.27;100.00;99919.88;6079809;19;20014;-84
2023/08/01 00:49:42;;;;;;;11.50;4.25;;;;;;;15.28;100.00;99920.72;6058965;19;20007;-83
2023/08/01 00:51:59;;;;;;;10.90;3.13;;;;;;;15.27;100.00;99919.88;6071095;19;20053;-84
2023/08/01 00:54:14;;;;;;;8.23;3.55;;;;;;;15.26;100.00;99915.53;6069992;19;20386;-84
2023/08/01 00:56:57;;;;;;;;;;;;;;;;;;;;;
2023/08/01 00:59:06;;;;;;;12.40;3.83;;;;;;;15.35;100.00;99919.31;6098629;19;20070;-84
2023/08/01 01:01:29;;;;;;;9.88;3.60;;;;;;;15.35;100.00;99914.00;6049385;19;20019;-83
2023/08/01 01:03:47;;;;;;;9.60;3.72;;;;;;;15.41;100.00;99916.19;6073581;19;20507;-83
2023/08/01 01:06:22;;;;;;;8.52;3.15;;;;;;;15.45;100.00;99914.97;6032796;19;20047;-84
2023/08/01 01:08:58;;;;;;;;;;;;;;;;;;;;;
2023/08/01 01:11:38;;;;;;;13.20;4.47;;;;;;;15.45;100.00;99895.59;6082318;19;20039;-84
2023/08/01 01:16:53;;;;;;;9.82;4.05;;;;;;;15.52;100.00;99907.44;6081189;19;20023;-83
2023/08/01 01:19:06;;;;;;;9.65;3.78;;;;;;;15.55;100.00;99899.25;6087299;19;20523;-85
2023/08/01 01:21:34;;;;;;;13.82;3.70;;;;;;;15.60;100.00;99902.38;6076228;19;20024;-83
2023/08/01 01:24:00;;;;;;;14.57;4.20;;;;;;;15.56;100.00;99892.97;6064463;19;20011;-85
2023/08/01 01:26:16;;;;;;;12.90;3.80;;;;;;;15.58;100.00;99896.34;6058685;19;20014;-85
2023/08/01 01:28:36;;;;;;;8.43;3.63;;;;;;;15.56;100.00;99895.63;6081804;19;20014;-84
2023/08/01 01:30:59;;;;;;;10.15;4.43;;;;;;;15.52;100.00;99899.47;6088143;19;20089;-85
2023/08/01 01:33:17;;;;;;;10.65;3.40;;;;;;;15.63;100.00;99915.38;6091404;19;20176;-85
2023/08/01 01:35:52;;;;;;;10.93;3.22;;;;;;;15.64;100.00;99897.69;6054558;19;20014;-86
2023/08/01 01:38:16;;;;;;;11.27;3.80;;;;;;;15.61;100.00;99898.75;6086111;19;20019;-85
2023/08/01 01:43:24;;;;;;;12.27;4.10;;;;;;;15.59;100.00;99890.13;6087970;19;20070;-85
2023/08/01 01:45:44;;;;;;;10.57;3.95;;;;;;;15.64;100.00;99887.97;6085206;19;20156;-84
2023/08/01 01:48:12;;;;;;;;;;;;;;;;;;;;;
2023/08/01 01:53:37;;;;;;;12.68;4.60;;;;;;;15.82;100.00;99890.16;6055604;19;20017;-84
2023/08/01 01:56:07;;;;;;;;;;;;;;;;;;;;;
2023/08/01 01:58:36;;;;;;;7.50;3.10;;;;;;;15.86;100.00;99889.81;6066716;19;20455;-84
2023/08/01 02:00:46;;;;;;;12.95;3.47;;;;;;;15.92;100.00;99896.44;6066827;19;20055;-84
2023/08/01 02:03:04;;;;;;;12.88;4.00;;;;;;;15.92;100.00;99891.13;6090088;19;20019;-80
2023/08/01 02:05:35;;;;;;;10.43;3.97;;;;;;;15.91;100.00;99897.41;6100576;19;20392;-82
2023/08/01 02:07:59;;;;;;;12.75;4.07;;;;;;;15.90;100.00;99882.47;6056824;19;20418;-82
2023/08/01 02:10:36;;;;;;;11.38;3.42;;;;;;;15.94;100.00;99894.53;6097561;19;20491;-83
2023/08/01 02:12:48;;;;;;;8.82;3.30;;;;;;;15.96;100.00;99889.94;6003402;19;20018;-83
2023/08/01 02:15:03;;;;;;;12.50;3.70;;;;;;;15.84;100.00;99886.44;6067617;19;20007;-83
2023/08/01 02:17:36;;;;;;;13.05;4.00;;;;;;;15.93;100.00;99885.75;6076986;19;20031;-84
2023/08/01 02:19:54;;;;;;;9.77;4.28;;;;;;;15.89;100.00;99884.28;6073151;19;20399;-82
2023/08/01 02:24:39;;;;;;;10.60;3.28;;;;;;;15.94;100.00;99886.56;6053718;19;20010;-82
2023/08/01 02:27:04;;;;;;;13.98;4.18;;;;;;;15.94;100.00;99884.75;6083362;19;20459;-82
2023/08/01 02:29:33;;;;;;;15.25;5.03;;;;;;;15.87;100.00;99872.09;6044363;19;20043;-81
2023/08/01 02:31:42;;;;;;;13.02;4.53;;;;;;;15.86;100.00;99875.72;6058708;19;20015;-83
2023/08/01 02:34:20;;;;;;;8.82;3.50;;;;;;;15.84;100.00;99867.88;6075313;19;20039;-83
2023/08/01 02:36:50;;;;;;;12.88;4.03;;;;;;;15.91;100.00;99877.06;6011255;19;20428;-82
2023/08/01 02:39:15;;;;;;;11.73;4.30;;;;;;;15.90;100.00;99875.34;6071321;19;20007;-84
2023/08/01 02:41:33;;;;;;;16.70;4.10;;;;;;;15.92;100.00;99889.31;6055094;19;20428;-82
2023/08/01 02:43:52;;;;;;;13.20;4.47;;;;;;;15.92;100.00;99883.19;6086901;19;20910;-81
2023/08/01 02:46:31;;;;;;;8.88;3.83;;;;;;;15.89;100.00;99886.09;6086264;19;20043;-82
2023/08/01 02:48:46;;;;;;;13.13;4.60;;;;;;;15.82;100.00;99876.91;6074088;19;20042;-82
2023/08/01 02:50:58;;;;;;;12.95;4.07;;;;;;;15.83;100.00;99889.22;6025575;19;20011;-82
2023/08/01 02:53:29;;;;;;;15.20;4.32;;;;;;;15.78;100.00;99887.75;6081751;19;20043;-82
2023/08/01 02:55:42;;;;;;;11.75;4.47;;;;;;;15.79;100.00;99886.78;6049261;19;20093;-82
2023/08/01 02:58:28;;;;;;;13.90;4.25;;;;;;;15.80;100.00;99888.50;6049615;19;20021;-81
2023/08/01 03:00:53;;;;;;;10.13;4.13;;;;;;;15.72;100.00;99884.75;6075869;19;20018;-81
2023/08/01 03:03:08;;;;;;;15.82;4.63;;;;;;;15.80;100.00;99893.78;6070427;19;20071;-82
2023/08/01 03:07:54;;;;;;;10.32;4.05;;;;;;;15.83;100.00;99887.41;6064527;19;20220;-82
2023/08/01 03:10:11;;;;;;;9.98;4.30;;;;;;;15.77;100.00;99880.78;6054736;19;20436;-82
2023/08/01 03:12:47;;;;;;;13.52;4.80;;;;;;;15.76;100.00;99889.69;6064783;19;20007;-82
2023/08/01 03:15:13;;;;;;;16.27;4.32;;;;;;;15.76;100.00;99888.84;6067250;19;20254;-82
2023/08/01 03:17:48;;;;;;;15.75;4.53;;;;;;;15.71;100.00;99901.59;6054119;19;20006;-82
2023/08/01 03:20:10;;;;;;;13.02;4.00;;;;;;;15.74;100.00;99890.75;5796658;19;5113096;-82
2023/08/01 03:22:33;;;;;;;12.85;4.05;;;;;;;15.73;100.00;99892.56;6059492;19;20447;-83
2023/08/01 03:24:47;;;;;;;13.43;4.95;;;;;;;15.70;100.00;99898.09;6076627;19;20039;-83
2023/08/01 03:27:01;;;;;;;16.02;4.20;;;;;;;15.71;100.00;99894.47;6072335;19;20015;-83
2023/08/01 03:29:20;;;;;;;11.30;4.05;;;;;;;15.73;100.00;99903.16;6070401;19;20014;-82
2023/08/01 03:31:40;;;;;;;11.68;3.72;;;;;;;15.74;100.00;99899.53;6042124;19;20027;-81
2023/08/01 03:34:07;;;;;;;15.98;5.22;;;;;;;15.69;100.00;99907.03;6052952;19;20039;-82
2023/08/01 03:36:25;;;;;;;14.68;4.65;;;;;;;15.59;100.00;99906.00;6073226;19;20499;-82
2023/08/01 03:38:38;;;;;;;14.75;4.85;;;;;;;15.53;100.00;99896.72;6091829;19;20085;-80
2023/08/01 03:40:57;;;;;;;9.55;4.43;;;;;;;15.56;100.00;99907.09;6077403;19;20089;-81
2023/08/01 03:43:12;;;;;;;13.63;4.82;;;;;;;15.58;100.00;99906.94;6066244;19;20022;-81
2023/08/01 03:45:38;;;;;;;11.88;5.25;;;;;;;15.55;100.00;99904.53;6075934;19;20408;-80
2023/08/01 03:48:04;;;;;;;15.35;3.88;;;;;;;15.55;100.00;99910.66;6061149;19;20016;-82
2023/08/01 03:50:20;;;;;;;13.02;4.75;;;;;;;15.55;100.00;99909.84;6067369;19;20431;-80
2023/08/01 03:52:27;;;;;;;13.98;3.83;;;;;;;15.50;100.00;99906.69;6055860;19;20350;-81
2023/08/01 03:54:48;;;;;;;20.27;5.10;;;;;;;15.57;100.00;99914.06;6090194;19;20016;-81
2023/08/01 03:57:02;;;;;;;13.18;4.50;;;;;;;15.47;100.00;99907.75;6060193;19;20017;-81
2023/08/01 03:59:14;;;;;;;11.98;4.20;;;;;;;15.46;100.00;99913.19;6083334;19;20443;-81
2023/08/01 04:01:37;;;;;;;16.05;3.80;;;;;;;15.52;100.00;99915.38;6064059;19;20006;-81
2023/08/01 04:03:50;;;;;;;13.18;4.28;;;;;;;15.62;100.00;99910.22;6083794;19;20775;-81
2023/08/01 04:06:10;;;;;;;11.82;3.95;;;;;;;15.54;100.00;99906.34;6044457;19;20006;-81
2023/08/01 04:08:27;;;;;;;13.65;5.00;;;;;;;15.53;100.00;99901.16;6067770;19;20014;-81
2023/08/01 04:10:42;;;;;;;11.82;4.60;;;;;;;15.51;100.00;99905.75;6078885;19;20029;-81
2023/08/01 04:12:58;;;;;;;11.95;4.50;;;;;;;15.56;100.00;99911.50;6079464;19;20056;-81
2023/08/01 04:15:30;;;;;;;9.73;4.35;;;;;;;15.58;100.00;99910.44;6074736;19;20035;-82
2023/08/01 04:17:40;;;;;;;9.38;3.70;;;;;;;15.54;100.00;99908.16;6051733;19;20074;-82
2023/08/01 04:20:01;;;;;;;8.65;3.85;;;;;;;15.53;100.00;99901.16;6063363;19;20279;-81
2023/08/01 04:22:32;;;;;;;9.52;3.28;;;;;;;15.51;100.00;99906.59;6074575;19;20011;-81
2023/08/01 04:24:44;;;;;;;7.57;3.30;;;;;;;15.47;100.00;99904.28;6076751;19;20544;-81
2023/08/01 04:26:55;;;;;;;14.15;4.40;;;;;;;15.46;100.00;99906.09;6088376;19;20021;-82
2023/08/01 04:29:01;;;;;;;9.88;3.97;;;;;;;15.44;100.00;99907.16;6061396;19;20400;-82
2023/08/01 04:31:20;;;;;;;7.10;3.33;;;;;;;15.45;100.00;99893.78;6086145;19;20006;-83
2023/08/01 04:33:44;;;;;;;9.35;3.58;;;;;;;15.44;100.00;99897.41;6052044;19;20101;-81
2023/08/01 04:36:07;;;;;;;8.15;3.15;;;;;;;15.44;100.00;99896.56;6066103;19;20008;-82
2023/08/01 04:38:55;;;;;;;11.27;3.88;;;;;;;15.43;100.00;99897.50;6064963;19;20010;-82
2023/08/01 04:41:14;;;;;;;12.82;3.90;;;;;;;15.48;100.00;99916.53;6060422;19;20021;-82
2023/08/01 04:43:30;;;;;;;10.55;3.42;;;;;;;15.51;100.00;99903.94;6008736;19;20680;-81
2023/08/01 04:45:46;;;;;;;9.20;3.75;;;;;;;15.51;100.00;99903.94;6053775;19;20018;-81
2023/08/01 04:48:10;;;;;;;;;;;;;;;;;;;;;
2023/08/01 04:50:29;;;;;;;11.25;3.17;;;;;;;15.52;100.00;99912.72;6042963;19;20007;-80
2023/08/01 04:52:42;;;;;;;9.57;3.47;;;;;;;15.54;100.00;99916.09;6093394;19;20391;-81
2023/08/01 04:54:58;;;;;;;17.63;3.90;;;;;;;15.55;100.00;99909.84;6082708;19;20019;-80
2023/08/01 04:57:18;;;;;;;7.90;3.08;;;;;;;15.57;100.00;99913.22;6079966;19;20011;-81
2023/08/01 04:59:39;;;;;;;13.55;3.30;;;;;;;15.57;100.00;99907.91;6070180;19;20017;-81
2023/08/01 05:01:52;;;;;;;11.43;3.53;;;;;;;15.54;100.00;99902.88;6060143;19;20014;-80
2023/08/01 05:04:40;;;;;;;11.00;4.00;;;;;;;15.59;100.00;99921.91;6084652;19;20363;-85
2023/08/01 05:07:10;;;;;;;8.85;3.65;;;;;;;15.62;100.00;99923.47;6084810;19;20003;-85
2023/08/01 05:09:39;;;;;;;8.30;3.13;;;;;;;15.62;100.00;99919.00;6048468;19;20068;-84
2023/08/01 05:12:05;;;;;;;7.78;3.17;;;;;;;15.53;100.00;99917.91;6066411;19;20343;-86
2023/08/01 05:14:28;;;;;;;14.10;3.85;;;;;;;15.46;100.00;99907.91;6061035;19;20007;-87
2023/08/01 05:16:39;;;;;;;11.32;3.50;;;;;;;15.50;100.00;99909.34;6083732;19;20042;-86
2023/08/01 05:18:50;;;;;;;13.20;3.80;;;;;;;15.49;100.00;99918.25;6059260;19;20021;-85
2023/08/01 05:21:11;;;;;;;9.88;4.43;;;;;;;15.41;100.00;99897.66;6077768;19;20010;-85
2023/08/01 05:23:24;;;;;;;9.25;3.33;;;;;;;15.47;100.00;99912.22;6088513;19;20018;-84
2023/08/01 05:25:43;;;;;;;8.95;3.72;;;;;;;15.45;100.00;99911.50;6079385;19;20027;-86
2023/08/01 05:28:05;;;;;;;7.90;3.05;;;;;;;15.38;100.00;99916.41;6070369;19;20010;-84
2023/08/01 05:30:18;;;;;;;8.82;4.47;;;;;;;15.41;100.00;99913.53;6045305;19;20013;-84
2023/08/01 05:35:12;;;;;;;9.35;3.78;;;;;;;15.48;100.00;99924.50;6061476;19;20023;-85
2023/08/01 05:37:27;;;;;;;11.35;3.42;;;;;;;15.54;100.00;99914.28;6064215;19;20028;-84
2023/08/01 05:40:08;;;;;;;8.82;2.97;;;;;;;15.65;100.00;99915.28;6062624;19;20090;-84
2023/08/01 05:42:24;;;;;;;15.75;3.80;;;;;;;15.77;100.00;99917.88;6076436;19;20007;-85
2023/08/01 05:44:51;;;;;;;10.30;3.53;;;;;;;15.91;100.00;99929.22;6052653;19;20036;-83
2023/08/01 05:47:24;;;;;;;6.97;3.03;;;;;;;15.96;100.00;99932.34;5984975;19;20108;-84
2023/08/01 05:49:40;;;;;;;12.02;3.90;;;;;;;15.89;100.00;99928.47;6055613;19;20155;-84
2023/08/01 05:52:23;;;;;;;8.25;3.22;;;;;;;15.90;100.00;99931.00;6067335;19;20943;-84
2023/08/01 05:54:39;;;;;;;11.05;3.78;;;;;;;15.95;100.00;99922.69;6075733;19;20048;-84
2023/08/01 05:57:20;;;;;;;12.20;4.43;;;;;;;16.52;99.99;99931.50;6064170;19;20018;-84
2023/08/01 05:59:37;;;;;;;10.05;3.88;;;;;;;16.88;99.27;99941.84;6049272;19;20025;-84
2023/08/01 06:02:01;;;;;;;8.40;3.10;;;;;;;16.73;96.54;99935.06;6040588;19;20047;-84
2023/08/01 06:04:39;;;;;;;10.98;3.55;;;;;;;16.78;98.38;99932.09;6091429;19;20055;-83
2023/08/01 06:06:47;;;;;;;8.35;3.20;;;;;;;16.66;98.47;99940.00;6094854;19;20559;-84
2023/08/01 06:09:27;;;;;;;;;;;;;;;;;;;;;
2023/08/01 06:11:41;;;;;;;10.38;4.53;;;;;;;16.97;94.06;99928.78;6076504;19;20045;-84
2023/08/01 06:14:21;;;;;;;11.13;3.53;;;;;;;17.06;95.92;99947.47;6084885;19;20104;-85
2023/08/01 06:16:47;;;;;;;13.25;3.63;;;;;;;16.71;94.42;99933.50;6043240;19;20023;-83
2023/08/01 06:22:00;;;;;;;8.63;2.83;;;;;;;17.22;92.93;99944.38;6060022;19;20393;-84
2023/08/01 06:24:31;;;;;;;7.63;2.70;;;;;;;17.20;92.70;99926.91;6078099;19;20009;-83
2023/08/01 06:26:44;;;;;;;9.55;3.13;;;;;;;17.24;92.96;99954.84;6081022;19;20023;-85
2023/08/01 06:29:17;;;;;;;9.65;3.35;;;;;;;17.21;92.79;99944.50;6074019;19;20011;-85
2023/08/01 06:31:54;;;;;;;8.38;3.33;;;;;;;17.19;92.67;99944.59;6058773;19;20007;-84
2023/08/01 06:34:32;;;;;;;8.68;3.42;;;;;;;17.13;93.25;99944.28;6025233;19;20215;-86
2023/08/01 06:36:59;;;;;;;10.27;3.63;;;;;;;16.94;94.80;99947.59;6071938;19;20018;-85
2023/08/01 06:39:22;;;;;;;10.70;3.35;;;;;;;16.81;96.45;99945.94;6100607;19;20030;-85
2023/08/01 06:44:38;;;;;;;11.10;3.70;;;;;;;16.74;97.61;99967.75;6084710;19;20043;-85
2023/08/01 06:47:08;;;;;;;7.38;3.90;;;;;;;16.70;98.82;99968.97;6090174;19;20059;-85
2023/08/01 06:49:42;;;;;;;10.32;3.92;;;;;;;17.32;96.21;99957.72;6054254;19;20010;-85
2023/08/01 06:54:47;;;;;;;11.15;3.35;;;;;;;17.60;93.33;99958.94;6102380;19;20110;-87
2023/08/01 06:57:09;;;;;;;11.57;3.85;;;;;;;18.03;91.28;99962.44;6068868;19;21368;-87
2023/08/01 06:59:53;;;;;;;11.80;3.70;;;;;;;17.79;90.27;99966.22;6057040;19;20014;-85
2023/08/01 07:02:22;;;;;;;9.80;3.63;;;;;;;18.03;88.30;99976.56;6088343;19;20011;-85
2023/08/01 07:04:52;;;;;;;10.50;3.72;;;;;;;18.29;88.31;99971.66;6089007;19;20010;-86
2023/08/01 07:07:06;;;;;;;11.20;3.80;;;;;;;18.42;86.81;99984.75;6096478;19;20035;-86
2023/08/01 07:09:36;;;;;;;10.20;3.30;;;;;;;17.78;88.20;99981.28;6103830;19;20009;-85
2023/08/01 07:14:25;;;;;;;5.65;2.83;;;;;;;18.00;88.15;99979.50;6041378;19;20018;-85
2023/08/01 07:16:37;;;;;;;5.85;3.13;;;;;;;18.51;85.15;99975.13;6013365;19;20014;-84
2023/08/01 07:18:48;;;;;;;8.48;2.97;;;;;;;18.55;84.63;99974.72;6034774;19;20007;-85
2023/08/01 07:21:17;;;;;;;10.02;3.28;;;;;;;18.75;83.39;99982.81;6058232;19;20379;-82
2023/08/01 07:23:38;;;;;;;8.68;2.58;;;;;;;19.12;82.38;99983.03;6060710;19;20043;-82
2023/08/01 07:25:53;;;;;;;7.20;2.88;;;;;;;18.19;82.12;99981.41;6050933;19;20468;-82
2023/08/01 07:28:04;;;;;;;7.30;2.83;;;;;;;18.16;82.59;99993.16;6024923;19;20021;-82
2023/08/01 07:30:25;;;;;;;9.57;3.08;;;;;;;18.93;81.93;99988.31;6044594;19;20018;-81
2023/08/01 07:32:41;;;;;;;6.57;2.58;;;;;;;18.39;82.01;99991.19;6061378;19;21053;-81
2023/08/01 07:34:54;;;;;;;8.25;2.97;;;;;;;17.95;82.34;99989.69;6093543;19;20151;-82
2023/08/01 07:37:14;;;;;;;8.60;2.78;;;;;;;18.59;79.62;99986.78;6074310;19;20006;-81
2023/08/01 07:39:31;;;;;;;6.85;2.72;;;;;;;18.08;82.08;99982.34;6056287;19;20006;-81
2023/08/01 07:41:42;;;;;;;;;;;;;;;18.07;82.42;100006.41;6090309;19;20023;-82
2023/08/01 07:43:53;;;;;;;8.00;3.05;;;;;;;18.95;80.40;100000.50;6073086;19;19919;-82
2023/08/01 07:46:32;;;;;;;9.70;3.15;;;;;;;19.61;78.57;99983.88;6046067;19;20651;-82
2023/08/01 07:49:16;;;;;;;;;;;;;;;;;;;;;
2023/08/01 07:51:44;;;;;;;9.13;2.95;;;;;;;19.43;77.10;100009.53;6054008;19;20017;-85
2023/08/01 07:54:08;;;;;;;8.80;2.83;;;;;;;18.95;77.74;99997.00;6076529;19;20007;-86
2023/08/01 07:56:37;;;;;;;8.70;3.00;;;;;;;18.74;79.76;99995.22;6069159;19;20007;-86
2023/08/01 07:59:12;;;;;;;5.30;2.75;;;;;;;18.85;78.89;100005.81;6074221;19;20502;-85
2023/08/01 08:01:29;;;;;;;8.70;3.35;;;;;;;18.67;77.96;99999.44;6091248;19;20015;-86
2023/08/01 08:04:00;;;;;;;10.77;3.63;;;;;;;18.86;77.39;99994.19;6051930;19;20614;-86
2023/08/01 08:09:00;;;;;;;10.13;3.33;;;;;;;19.44;77.86;100020.06;6078686;19;20461;-86
2023/08/01 08:11:34;;;;;;;7.47;3.10;;;;;;;18.99;76.90;100017.06;6063048;19;20022;-86
2023/08/01 08:14:17;;;;;;;5.65;2.42;;;;;;;18.57;77.76;100022.50;6036161;19;20136;-81
2023/08/01 08:16:28;;;;;;;9.82;3.00;;;;;;;18.72;77.12;100006.97;6063770;19;20021;-81
2023/08/01 08:18:44;;;;;;;9.82;3.38;;;;;;;18.55;77.68;100014.63;6054499;19;20515;-82
2023/08/01 08:20:59;;;;;;;5.85;2.65;;;;;;;18.39;80.97;100017.78;6045472;19;20006;-81
2023/08/01 08:23:30;;;;;;;5.97;2.45;;;;;;;18.54;78.04;100018.28;6045112;19;20017;-82
2023/08/01 08:26:02;;;;;;;6.25;2.75;;;;;;;18.61;78.33;100021.25;6052784;19;20382;-82
2023/08/01 08:28:30;;;;;;;10.30;2.70;;;;;;;18.34;78.67;100033.28;6058848;19;20785;-82
2023/08/01 08:33:12;;;;;;;8.07;3.22;;;;;;;18.22;80.92;100034.38;6088147;19;20070;-80
2023/08/01 08:35:46;;;;;;;9.80;3.13;;;;;;;18.04;79.86;100030.63;6076886;19;20010;-81
2023/08/01 08:38:11;;;;;;;11.98;2.88;;;;;;;17.85;78.54;100020.66;6067788;19;20018;-82
2023/08/01 08:40:33;;;;;;;10.63;3.15;;;;;;;18.49;78.76;100038.28;6048002;19;20006;-82
2023/08/01 08:45:29;;;;;;;9.38;3.35;;;;;;;19.73;74.55;100043.25;6080056;19;20018;-82
2023/08/01 08:47:47;;;;;;;6.90;2.58;;;;;;;19.56;75.35;100027.94;6072927;19;20006;-82
2023/08/01 08:50:06;;;;;;;7.32;3.08;;;;;;;19.51;73.21;100031.88;6063939;19;20009;-82
2023/08/01 08:52:38;;;;;;;7.88;2.60;;;;;;;20.11;72.80;100034.38;6063278;19;20232;-82
2023/08/01 08:55:05;;;;;;;7.43;2.63;;;;;;;19.72;71.81;100033.56;6074524;19;20027;-82
2023/08/01 08:57:25;;;;;;;11.45;3.13;;;;;;;20.12;71.06;100024.56;6054412;19;20093;-83
2023/08/01 08:59:35;;;;;;;9.93;2.90;;;;;;;19.96;70.53;100041.16;6062560;19;20052;-83
2023/08/01 09:02:00;;;;;;;6.68;2.58;;;;;;;19.72;72.41;100042.44;6028125;19;20311;-82
2023/08/01 09:04:18;;;;;;;7.68;3.28;;;;;;;18.98;73.16;100028.69;6056252;19;20014;-82
2023/08/01 09:06:42;;;;;;;5.57;2.83;;;;;;;19.21;73.67;100038.13;6051531;19;20063;-84
2023/08/01 09:09:09;;;;;;;8.27;2.80;;;;;;;19.02;72.62;100035.44;6052284;19;20011;-84
2023/08/01 09:11:55;;;;;;;8.68;2.60;;;;;;;20.47;70.14;100039.91;6036526;19;20014;-84
2023/08/01 09:14:09;;;;;;;10.20;2.65;;;;;;;20.72;67.95;100034.91;6050520;19;20375;-83
2023/08/01 09:16:26;;;;;;;;;;;;;;;20.41;66.02;100045.84;6071873;19;20007;-83
2023/08/01 09:18:59;;;;;;;8.20;2.70;;;;;;;19.45;69.63;100052.88;6088753;19;19987;-83
2023/08/01 09:21:17;;;;;;;5.70;2.25;;;;;;;20.01;69.02;100035.38;6085776;19;20397;-83
2023/08/01 09:23:38;;;;;;;6.90;2.80;;;;;;;20.75;67.51;100037.31;6088169;19;20011;-83
2023/08/01 09:25:51;;;;;;;7.97;2.97;;;;;;;20.84;66.37;100047.09;6059167;19;20037;-84
2023/08/01 09:28:21;;;;;;;8.30;2.83;;;;;;;20.97;67.00;100047.59;6094853;19;20059;-84
2023/08/01 09:30:56;;;;;;;6.25;2.60;;;;;;;20.89;67.89;100052.84;6073404;19;20014;-83
2023/08/01 09:33:16;;;;;;;7.18;2.97;;;;;;;20.58;67.06;100047.75;6087595;19;20014;-84
2023/08/01 09:35:45;;;;;;;8.40;3.00;;;;;;;21.49;66.80;100052.38;6055738;19;20003;-83
2023/08/01 09:38:15;;;;;;;9.02;2.78;;;;;;;22.51;64.42;100053.69;6067891;19;20071;-84
2023/08/01 09:40:33;;;;;;;10.90;3.03;;;;;;;22.37;61.14;100047.09;6079780;19;20579;-84
2023/08/01 09:43:14;;;;;;;10.57;2.95;;;;;;;22.44;60.96;100061.53;6080906;19;20030;-84
2023/08/01 09:45:36;;;;;;;6.30;2.20;;;;;;;22.01;60.44;100067.69;6051135;19;20014;-84
2023/08/01 09:48:00;;;;;;;8.45;3.15;;;;;;;22.29;62.19;100060.41;6056738;19;20106;-84
2023/08/01 09:50:25;;;;;;;7.47;3.28;;;;;;;22.00;62.25;100066.03;6089137;19;20444;-84
2023/08/01 09:52:55;;;;;;;5.03;2.45;;;;;;;21.13;61.95;100062.13;6083778;19;20035;-82
2023/08/01 09:55:26;;;;;;;5.32;2.35;;;;;;;20.88;63.98;100069.00;6103805;19;20014;-82
2023/08/01 09:57:50;;;;;;;7.10;2.75;;;;;;;21.86;63.67;100060.22;6045994;19;20015;-82
2023/08/01 10:00:06;;;;;;;7.55;2.42;;;;;;;20.82;63.44;100070.44;6050023;19;20007;-83
2023/08/01 10:02:28;;;;;;;6.70;2.40;;;;;;;20.89;63.33;100076.88;6095865;19;20006;-84
2023/08/01 10:04:49;;;;;;;9.10;3.03;;;;;;;21.48;63.46;100078.28;6065015;19;20014;-84
2023/08/01 10:42:17;;;;;;;6.03;2.30;;;;;;;20.98;61.88;100089.31;5994303;19;20449;-89
2023/08/01 10:45:08;;;;;;;8.38;2.38;;;;;;;20.19;63.34;100089.66;6043670;19;20015;-85
2023/08/01 10:51:02;;;;;;;10.52;2.47;;;;;;;20.21;65.71;100116.22;6059922;19;20503;-85
2023/08/01 10:54:13;;;;;;;9.82;3.15;;;;;;;20.06;66.48;100100.63;6003096;19;20440;-86
2023/08/01 10:59:57;;;;;;;8.70;3.35;;;;;;;19.71;69.68;100119.88;6031451;19;20015;-85
2023/08/01 11:03:26;;;;;;;;;;;;;;;;;;;;;
2023/08/01 11:09:39;;;;;;;6.40;2.67;;;;;;;20.51;64.85;100115.19;6081168;19;20078;-86
2023/08/01 11:12:40;;;;;;;8.23;2.28;;;;;;;21.08;63.96;100137.38;6008149;19;20018;-85
2023/08/01 11:15:54;;;;;;;7.28;2.70;;;;;;;20.86;64.12;100125.25;6046041;19;20014;-85
2023/08/01 11:26:25;;;;;;;9.30;2.10;;;;;;;20.03;64.25;100148.09;6031084;19;20652;-84
2023/08/01 11:29:11;;;;;;;5.75;2.60;;;;;;;19.85;63.83;100142.59;6060529;19;20018;-82
2023/08/01 11:34:57;;;;;;;3.90;1.92;;;;;;;20.08;63.80;100151.19;5989561;19;20269;-83
2023/08/01 11:43:01;;;;;;;6.35;2.20;;;;;;;19.17;65.60;100147.72;6055069;19;20383;-83
2023/08/01 11:45:59;;;;;;;6.07;2.47;;;;;;;20.70;63.63;100143.72;5991601;19;20026;-81
2023/08/01 11:52:07;;;;;;;7.20;2.42;;;;;;;20.60;61.35;100147.22;6047076;19;20463;-82
2023/08/01 11:54:28;;;;;;;5.82;2.25;;;;;;;20.86;61.71;100145.78;6005111;19;20056;-83
2023/08/01 11:56:42;;;;;;;2.90;1.98;;;;;;;20.42;62.92;100138.25;6056288;19;20060;-81
2023/08/01 11:59:25;;;;;;;9.15;3.00;;;;;;;20.68;62.33;100146.50;6083791;19;20119;-83
2023/08/01 12:01:50;;;;;;;8.37;2.67;;;;;;;20.47;63.08;100151.16;6082012;19;20026;-84
2023/08/01 12:03:59;;;;;;;8.55;2.67;;;;;;;20.20;65.36;100165.25;6091806;19;20547;-82
2023/08/01 12:06:13;;;;;;;6.30;2.60;;;;;;;19.86;68.55;100165.63;6090095;19;20066;-83
2023/08/01 12:08:43;;;;;;;8.43;2.63;;;;;;;19.95;68.50;100160.28;6057077;19;20018;-83
2023/08/01 12:10:56;;;;;;;9.68;2.55;;;;;;;20.20;64.67;100160.75;6058829;19;20067;-83
2023/08/01 12:13:23;;;;;;;4.03;2.15;;;;;;;20.75;62.62;100162.81;6057895;19;20036;-83
2023/08/01 12:15:36;;;;;;;7.47;1.90;;;;;;;21.40;61.20;100157.50;6090658;19;20253;-83
2023/08/01 12:17:48;;;;;;;6.15;2.00;;;;;;;21.86;59.64;100156.53;6051178;19;20019;-82
2023/08/01 12:20:16;;;;;;;7.45;2.10;;;;;;;21.99;59.22;100171.38;6067431;19;20375;-83
2023/08/01 12:22:51;;;;;;;3.75;2.10;;;;;;;21.61;59.79;100165.28;6077161;19;20017;-83
2023/08/01 12:25:24;;;;;;;7.00;2.50;;;;;;;22.19;59.97;100177.44;6065132;19;20006;-84
2023/08/01 12:27:31;;;;;;;9.52;2.38;;;;;;;22.47;58.73;100165.63;6027083;19;20019;-82
2023/08/01 12:29:44;;;;;;;4.38;2.10;;;;;;;22.06;59.45;100172.44;6070554;19;20038;-82
2023/08/01 12:31:55;;;;;;;7.15;2.25;;;;;;;20.86;59.75;100173.31;6053348;19;20032;-82
2023/08/01 12:34:09;;;;;;;5.47;2.63;;;;;;;20.80;61.26;100168.53;6094255;19;20011;-83
2023/08/01 12:38:42;;;;;;;6.68;2.85;;;;;;;22.48;60.41;100177.16;6069016;19;20023;-83
2023/08/01 12:40:54;;;;;;;10.30;3.38;;;;;;;21.40;60.40;100176.22;6092188;19;20050;-83
2023/08/01 12:43:20;;;;;;;7.57;2.45;;;;;;;21.42;60.69;100169.75;6027386;19;20023;-83
2023/08/01 12:45:36;;;;;;;6.37;2.87;;;;;;;21.91;61.76;100175.63;6028560;19;20007;-83
2023/08/01 12:48:20;;;;;;;;;;;;;;;;;;;;;
2023/08/01 12:50:29;;;;;;;7.53;3.13;;;;;;;22.20;58.72;100168.44;6060593;19;20280;-83
2023/08/01 12:52:42;;;;;;;5.07;2.45;;;;;;;21.82;59.48;100176.53;6068866;19;20010;-82
2023/08/01 12:55:02;;;;;;;8.07;2.42;;;;;;;21.53;60.64;100170.53;6074816;19;20396;-86
2023/08/01 12:57:20;;;;;;;7.72;2.40;;;;;;;21.59;61.13;100180.63;6034865;19;20078;-86
2023/08/01 12:59:42;;;;;;;8.95;2.65;;;;;;;21.67;61.00;100184.25;6031300;19;20021;-85
2023/08/01 13:02:08;;;;;;;6.60;2.33;;;;;;;21.39;60.12;100183.41;6069264;19;20027;-84
2023/08/01 13:04:25;;;;;;;6.40;2.60;;;;;;;20.98;60.68;100180.16;6097448;19;20074;-85